Terminal Aerodrome Forecast
Issued by NWS

Home | Current Version | Previous Version | Text Only | Print | Product List | Glossary On
Versions: 1 2 3 4 5 6 7 8 9 10 11 12
000
FTUS42 TJSJ 231720
TAFJSJ
TAF
TJSJ 231720Z 2318/2418 08014G20KT P6SM VCSH SCT025 BKN050 BKN090
     FM232230 09010KT P6SM FEW030 SCT060 SCT100
     FM240630 12004KT P6SM VCSH SCT025 BKN050
     FM241450 10012KT P6SM SCT030 BKN060 BKN100=

USA.gov is the U.S. government's official web portal to all federal, state and local government web resources and services.